Time;durP1;ratioP1;P1;durP2;ratioP2;P2;SDS_P1;SDS_P2;PMS_P1;PMS_P2;Temp;Humidity;BMP_temperature;BMP_pressure;BME280_temperature;BME280_humidity;BME280_pressure;Samples;Min_cycle;Max_cycle;Signal;HPM_P1;HPM_P2
2021/03/15 00:00:37;;;;;;;3.80;3.50;;;6.30;99.90;;;;;;5093231;28;20923;-65
2021/03/15 00:03:04;;;;;;;3.90;3.60;;;6.30;99.90;;;;;;5074656;28;20426;-65
2021/03/15 00:05:29;;;;;;;4.03;3.63;;;6.30;99.90;;;;;;5093919;28;20428;-64
2021/03/15 00:07:56;;;;;;;5.77;4.07;;;6.00;99.90;;;;;;5077520;28;20412;-65
2021/03/15 00:10:22;;;;;;;3.80;3.40;;;6.00;99.90;;;;;;5073776;28;20241;-65
2021/03/15 00:12:47;;;;;;;4.40;4.00;;;6.00;99.90;;;;;;5073135;28;20418;-65
2021/03/15 00:15:16;;;;;;;5.13;3.90;;;6.00;99.90;;;;;;5109968;28;20618;-65
2021/03/15 00:17:42;;;;;;;6.00;4.50;;;6.00;99.90;;;;;;5113650;28;20543;-65
2021/03/15 00:20:10;;;;;;;4.33;3.80;;;5.90;99.90;;;;;;5113698;28;20395;-65
2021/03/15 00:22:36;;;;;;;4.90;4.40;;;6.00;99.90;;;;;;5113689;28;20459;-65
2021/03/15 00:25:02;;;;;;;4.60;4.00;;;6.00;99.90;;;;;;5113852;28;20419;-65
2021/03/15 00:27:28;;;;;;;4.37;3.97;;;5.90;99.90;;;;;;5113613;28;20237;-65
2021/03/15 00:29:54;;;;;;;4.03;3.63;;;5.90;99.90;;;;;;5113180;28;20410;-65
2021/03/15 00:32:19;;;;;;;7.37;4.13;;;5.90;99.90;;;;;;5113155;28;20169;-65
2021/03/15 00:34:45;;;;;;;4.83;3.47;;;5.80;99.90;;;;;;5102436;28;20733;-65
2021/03/15 00:37:11;;;;;;;5.20;3.67;;;5.80;99.90;;;;;;5082403;28;20217;-65
2021/03/15 00:39:37;;;;;;;4.83;4.40;;;5.80;99.90;;;;;;5073234;28;20220;-65
2021/03/15 00:42:03;;;;;;;4.53;4.13;;;5.70;99.90;;;;;;5072984;28;20170;-65
2021/03/15 00:44:29;;;;;;;7.50;4.13;;;5.60;99.90;;;;;;5084782;28;20543;-64
2021/03/15 00:46:54;;;;;;;5.20;4.70;;;5.70;99.90;;;;;;5092942;28;20482;-64
2021/03/15 00:49:20;;;;;;;4.47;4.07;;;5.60;99.90;;;;;;5093133;28;20290;-65
2021/03/15 00:51:45;;;;;;;4.80;3.90;;;5.50;99.90;;;;;;5093130;28;20169;-66
2021/03/15 00:54:11;;;;;;;4.10;3.73;;;5.60;99.90;;;;;;5093099;28;20195;-66
2021/03/15 00:56:37;;;;;;;4.20;3.40;;;5.60;99.90;;;;;;5101501;28;20195;-66
2021/03/15 00:59:02;;;;;;;4.80;4.20;;;5.50;99.90;;;;;;5113219;28;20200;-66
2021/03/15 01:01:28;;;;;;;4.10;3.43;;;5.60;99.90;;;;;;5112960;28;20206;-66
2021/03/15 01:03:53;;;;;;;3.67;3.37;;;5.60;99.90;;;;;;5092741;28;20197;-66
2021/03/15 01:06:19;;;;;;;5.20;4.60;;;5.70;99.90;;;;;;5088863;28;20552;-66
2021/03/15 01:08:44;;;;;;;5.93;4.27;;;5.70;99.90;;;;;;5072623;28;20211;-65
2021/03/15 01:11:10;;;;;;;5.93;3.70;;;5.60;99.90;;;;;;5072892;28;20178;-63
2021/03/15 01:13:37;;;;;;;3.93;3.63;;;5.30;99.90;;;;;;5072469;28;20219;-65
2021/03/15 01:16:03;;;;;;;8.97;4.20;;;5.40;99.90;;;;;;5076197;28;20201;-66
2021/03/15 01:18:30;;;;;;;6.00;4.07;;;5.50;99.90;;;;;;5089320;28;20491;-66
2021/03/15 01:20:55;;;;;;;5.07;3.57;;;5.40;99.90;;;;;;5092995;28;20769;-66
2021/03/15 01:23:21;;;;;;;5.20;3.03;;;5.30;99.90;;;;;;5092982;28;20497;-66
2021/03/15 01:25:47;;;;;;;4.47;4.07;;;5.40;99.90;;;;;;5095869;28;20178;-66
2021/03/15 01:28:14;;;;;;;6.10;3.70;;;5.50;99.90;;;;;;5113213;28;20180;-66
2021/03/15 01:30:42;;;;;;;5.63;3.90;;;5.60;99.90;;;;;;5098125;28;20173;-66
2021/03/15 01:33:08;;;;;;;5.80;4.17;;;5.70;99.90;;;;;;5092498;28;20940;-66
2021/03/15 01:35:35;;;;;;;4.40;3.70;;;5.50;99.90;;;;;;5092605;28;20415;-66
2021/03/15 01:38:01;;;;;;;4.30;4.00;;;5.40;99.90;;;;;;5091912;28;20451;-66
2021/03/15 01:40:27;;;;;;;7.00;5.03;;;5.20;99.90;;;;;;5092822;28;20791;-66
2021/03/15 01:42:54;;;;;;;6.83;3.93;;;5.30;99.90;;;;;;5092644;28;20762;-66
2021/03/15 01:45:19;;;;;;;4.60;4.20;;;5.40;99.90;;;;;;5095136;28;20411;-66
2021/03/15 01:47:46;;;;;;;4.70;3.30;;;5.40;99.90;;;;;;5096225;28;20951;-66
2021/03/15 01:50:14;;;;;;;7.63;4.60;;;5.50;99.90;;;;;;5096225;28;20884;-66
2021/03/15 01:52:40;;;;;;;5.83;3.40;;;5.50;99.90;;;;;;5076741;28;20411;-65
2021/03/15 01:55:09;;;;;;;7.10;5.50;;;5.50;99.90;;;;;;5075951;28;20432;-64
2021/03/15 01:57:36;;;;;;;6.90;6.03;;;5.40;99.90;;;;;;5093173;28;20430;-65
2021/03/15 02:00:04;;;;;;;8.43;6.40;;;5.30;99.90;;;;;;5095579;28;20910;-64
2021/03/15 02:02:30;;;;;;;6.20;5.60;;;5.10;99.90;;;;;;5095938;28;20875;-64
2021/03/15 02:04:56;;;;;;;4.83;4.43;;;5.20;99.90;;;;;;5096296;28;20477;-64
2021/03/15 02:07:21;;;;;;;5.07;4.13;;;5.30;99.90;;;;;;5095915;28;20653;-64
2021/03/15 02:09:47;;;;;;;4.60;4.17;;;5.30;99.90;;;;;;5096639;28;20169;-64
2021/03/15 02:12:49;;;;;;;5.43;4.93;;;5.40;99.90;;;;;;5095647;28;20165;-64
2021/03/15 02:15:17;;;;;;;4.23;3.70;;;5.40;99.90;;;;;;5133867;22;20223;-64
2021/03/15 02:18:10;;;;;;;8.30;5.07;;;5.30;99.90;;;;;;5116021;28;20477;-65
2021/03/15 02:20:42;;;;;;;4.33;3.93;;;5.30;99.90;;;;;;5115898;28;20401;-63
2021/03/15 02:23:26;;;;;;;6.33;4.33;;;5.20;99.90;;;;;;5116029;28;20894;-64
2021/03/15 02:26:29;;;;;;;6.60;4.53;;;5.00;99.90;;;;;;5095571;28;20417;-64
2021/03/15 02:29:28;;;;;;;5.00;4.60;;;4.80;99.90;;;;;;5095002;28;20769;-65
2021/03/15 02:32:31;;;;;;;7.50;4.97;;;5.00;99.90;;;;;;5080682;28;20444;-64
2021/03/15 02:35:09;;;;;;;6.10;3.80;;;5.00;99.90;;;;;;5056330;28;20444;-65
2021/03/15 02:37:55;;;;;;;4.63;4.23;;;5.00;99.90;;;;;;5068073;28;20412;-64
2021/03/15 02:40:29;;;;;;;5.23;4.30;;;5.20;99.90;;;;;;5054874;28;20401;-64
2021/03/15 02:42:59;;;;;;;6.00;4.60;;;5.30;99.90;;;;;;5054473;28;20396;-66
2021/03/15 02:45:26;;;;;;;6.50;4.37;;;5.20;99.90;;;;;;5080953;28;20433;-64
2021/03/15 02:47:52;;;;;;;6.60;4.77;;;5.20;99.90;;;;;;5069875;28;20507;-65
2021/03/15 02:50:19;;;;;;;4.90;4.50;;;5.20;99.90;;;;;;5066403;28;20504;-65
2021/03/15 02:52:47;;;;;;;6.00;4.27;;;5.10;99.90;;;;;;5074535;28;20416;-65
2021/03/15 02:55:17;;;;;;;8.40;4.27;;;5.10;99.90;;;;;;5074560;28;20424;-66
2021/03/15 02:57:46;;;;;;;11.23;4.60;;;5.20;99.90;;;;;;5073020;28;20400;-63
2021/03/15 03:00:14;;;;;;;7.53;4.40;;;5.10;99.90;;;;;;5074211;28;20437;-63
2021/03/15 03:02:44;;;;;;;6.13;4.13;;;5.20;99.90;;;;;;5074277;28;20420;-65
2021/03/15 03:05:13;;;;;;;6.87;4.20;;;5.40;99.90;;;;;;5074634;28;20420;-65
2021/03/15 03:07:41;;;;;;;8.03;4.00;;;5.40;99.90;;;;;;5074053;28;20901;-63
2021/03/15 03:10:09;;;;;;;4.60;3.77;;;5.50;99.90;;;;;;5056386;28;20412;-64
2021/03/15 03:12:39;;;;;;;6.10;4.50;;;5.40;99.90;;;;;;5074286;28;20405;-65
2021/03/15 03:15:07;;;;;;;10.87;4.27;;;5.40;99.90;;;;;;5087681;28;20865;-64
2021/03/15 03:17:40;;;;;;;6.57;3.67;;;5.40;99.90;;;;;;5089183;28;20465;-63
2021/03/15 03:20:09;;;;;;;6.13;4.10;;;5.40;99.90;;;;;;5060862;28;20494;-65
2021/03/15 03:22:38;;;;;;;5.67;4.30;;;5.30;99.90;;;;;;5058137;28;20413;-64
2021/03/15 03:25:06;;;;;;;4.93;3.83;;;5.30;99.90;;;;;;5054061;28;20925;-64
2021/03/15 03:27:32;;;;;;;6.73;4.40;;;5.30;99.90;;;;;;5053816;28;20397;-64
2021/03/15 03:29:59;;;;;;;5.80;3.70;;;5.20;99.90;;;;;;5035909;28;20405;-64
2021/03/15 03:32:25;;;;;;;6.33;3.30;;;5.10;99.90;;;;;;5036080;28;20539;-64
2021/03/15 03:34:51;;;;;;;4.07;3.60;;;5.30;99.90;;;;;;5084947;28;20424;-64
2021/03/15 03:37:17;;;;;;;4.97;3.40;;;5.20;99.90;;;;;;5082169;28;20431;-64
2021/03/15 03:39:42;;;;;;;7.20;4.60;;;5.40;99.90;;;;;;5073944;28;20277;-64
2021/03/15 03:42:08;;;;;;;4.03;3.63;;;5.30;99.90;;;;;;5073974;28;20162;-65
2021/03/15 03:44:34;;;;;;;4.00;3.60;;;5.30;99.90;;;;;;5073830;28;20324;-63
2021/03/15 03:47:00;;;;;;;5.43;3.90;;;5.20;99.90;;;;;;5073871;28;20771;-64
2021/03/15 03:49:26;;;;;;;4.80;3.80;;;5.10;99.90;;;;;;5074364;28;20768;-64
2021/03/15 03:51:58;;;;;;;3.80;3.50;;;5.30;99.90;;;;;;5068447;28;20990;-65
2021/03/15 03:54:36;;;;;;;6.53;3.33;;;5.40;99.90;;;;;;5062032;28;20250;-64
2021/03/15 03:57:13;;;;;;;5.70;3.87;;;5.40;99.90;;;;;;5067742;28;20413;-64
2021/03/15 03:59:43;;;;;;;2.87;2.67;;;5.50;99.90;;;;;;5053306;28;20467;-64
2021/03/15 04:02:11;;;;;;;3.53;2.97;;;5.40;99.90;;;;;;5058684;28;20415;-65
2021/03/15 04:04:45;;;;;;;5.90;2.60;;;5.40;99.90;;;;;;5073591;28;20420;-64
2021/03/15 04:07:12;;;;;;;3.57;2.93;;;5.70;99.90;;;;;;5062816;28;20412;-64
2021/03/15 04:09:41;;;;;;;4.53;3.13;;;5.60;99.90;;;;;;5053430;28;20401;-65
2021/03/15 04:12:11;;;;;;;5.60;3.10;;;5.60;99.90;;;;;;5053150;28;20397;-66
2021/03/15 04:14:42;;;;;;;6.23;2.80;;;5.70;99.90;;;;;;5073405;28;20547;-64
2021/03/15 04:17:15;;;;;;;5.87;3.40;;;5.70;99.90;;;;;;5094163;28;20786;-65
2021/03/15 04:20:25;;;;;;;3.93;2.90;;;5.70;99.90;;;;;;5094260;28;20453;-62
2021/03/15 04:22:54;;;;;;;2.70;2.50;;;5.60;99.90;;;;;;5086360;28;20419;-65
2021/03/15 04:25:21;;;;;;;4.47;2.93;;;5.50;99.90;;;;;;5093598;28;20782;-65
2021/03/15 04:27:51;;;;;;;3.60;3.07;;;5.60;99.90;;;;;;5093465;28;20400;-65
2021/03/15 04:30:18;;;;;;;4.03;3.43;;;5.60;99.90;;;;;;5093470;28;20404;-64
2021/03/15 04:32:47;;;;;;;3.70;3.47;;;5.60;99.90;;;;;;5093402;28;20442;-64
2021/03/15 04:35:13;;;;;;;3.33;3.00;;;5.60;99.90;;;;;;5093109;28;20423;-64
2021/03/15 04:37:39;;;;;;;3.70;2.90;;;5.50;99.90;;;;;;5078335;28;20797;-64
2021/03/15 04:40:06;;;;;;;3.63;3.27;;;5.60;99.90;;;;;;5072986;28;20408;-64
2021/03/15 04:42:33;;;;;;;5.33;3.63;;;5.40;99.90;;;;;;5072838;28;20408;-64
2021/03/15 04:45:01;;;;;;;3.77;3.47;;;5.40;99.90;;;;;;5085663;28;20441;-64
2021/03/15 04:47:27;;;;;;;4.33;3.70;;;5.30;99.90;;;;;;5093576;28;20791;-64
2021/03/15 04:49:54;;;;;;;3.73;3.43;;;5.40;99.90;;;;;;5093288;28;20767;-64
2021/03/15 04:52:21;;;;;;;3.43;2.90;;;5.50;99.90;;;;;;5076792;28;20400;-64
2021/03/15 04:54:46;;;;;;;5.30;4.50;;;5.60;99.90;;;;;;5072918;28;20428;-64
2021/03/15 04:57:14;;;;;;;3.67;3.33;;;5.50;99.90;;;;;;5072810;28;20407;-64
2021/03/15 04:59:41;;;;;;;4.47;3.00;;;5.50;99.90;;;;;;5072460;28;20204;-64
2021/03/15 05:02:07;;;;;;;6.00;3.93;;;5.50;99.90;;;;;;5072566;28;20408;-64
2021/03/15 05:04:35;;;;;;;7.97;6.40;;;5.40;99.90;;;;;;5072891;28;20944;-64
2021/03/15 05:07:03;;;;;;;10.00;7.30;;;5.30;99.90;;;;;;5063928;28;20440;-64
2021/03/15 05:09:30;;;;;;;5.10;3.07;;;5.40;99.90;;;;;;5052795;28;20419;-64
2021/03/15 05:11:57;;;;;;;3.67;3.20;;;5.40;99.90;;;;;;5052587;28;20406;-64
2021/03/15 05:14:23;;;;;;;6.20;3.23;;;5.50;99.90;;;;;;5060632;28;20468;-65
2021/03/15 05:16:49;;;;;;;7.67;3.80;;;5.50;99.90;;;;;;5072876;28;20422;-64
2021/03/15 05:19:16;;;;;;;4.73;3.60;;;5.50;99.90;;;;;;5074229;28;20507;-64
2021/03/15 05:21:44;;;;;;;4.83;4.33;;;5.50;99.90;;;;;;5076740;28;20877;-64
2021/03/15 05:24:11;;;;;;;4.27;3.90;;;5.30;99.90;;;;;;5076656;28;20435;-64
2021/03/15 05:26:39;;;;;;;4.00;3.60;;;5.40;99.90;;;;;;5076409;28;20396;-64
2021/03/15 05:29:12;;;;;;;4.20;3.80;;;5.50;99.90;;;;;;5076451;28;20867;-63
2021/03/15 05:31:40;;;;;;;3.50;3.20;;;5.60;99.90;;;;;;5076392;28;20407;-63
2021/03/15 05:34:08;;;;;;;3.80;3.40;;;5.50;99.90;;;;;;5076542;28;20955;-63
2021/03/15 05:36:34;;;;;;;5.53;3.87;;;5.40;99.90;;;;;;5075729;28;20420;-63
2021/03/15 05:39:00;;;;;;;6.13;3.80;;;5.50;99.90;;;;;;5076571;28;20444;-64
2021/03/15 05:41:58;;;;;;;4.30;3.90;;;5.50;99.90;;;;;;5076344;28;20430;-63
2021/03/15 05:44:42;;;;;;;4.00;3.53;;;5.50;99.90;;;;;;5045116;28;20210;-63
2021/03/15 05:47:57;;;;;;;6.50;4.17;;;5.50;99.90;;;;;;5075834;28;20458;-63
2021/03/15 05:50:43;;;;;;;4.53;3.23;;;5.50;99.90;;;;;;5014076;28;20426;-65
2021/03/15 05:53:50;;;;;;;8.30;4.23;;;5.30;99.90;;;;;;4994746;28;20396;-63
2021/03/15 05:56:22;;;;;;;6.50;4.50;;;5.20;99.90;;;;;;5027674;28;20748;-64
2021/03/15 05:59:12;;;;;;;4.27;3.33;;;5.20;99.90;;;;;;5091063;28;20500;-61
2021/03/15 06:01:56;;;;;;;4.00;3.53;;;5.20;99.90;;;;;;5094824;28;20395;-64
2021/03/15 06:04:44;;;;;;;7.40;3.70;;;5.10;99.90;;;;;;5075801;28;20448;-63
2021/03/15 06:07:13;;;;;;;6.40;4.40;;;5.20;99.90;;;;;;5065438;28;20780;-63
2021/03/15 06:09:55;;;;;;;4.47;4.03;;;5.00;99.90;;;;;;5055990;28;20428;-64
2021/03/15 06:12:25;;;;;;;5.50;3.67;;;5.00;99.90;;;;;;5055686;28;20917;-63
2021/03/15 06:14:54;;;;;;;5.20;3.80;;;5.00;99.90;;;;;;5055409;28;20518;-63
2021/03/15 06:17:21;;;;;;;3.67;3.37;;;5.10;99.90;;;;;;5055654;28;20439;-63
2021/03/15 06:19:48;;;;;;;4.07;3.77;;;5.10;99.90;;;;;;5055484;28;20445;-64
2021/03/15 06:22:15;;;;;;;6.27;3.77;;;5.00;99.90;;;;;;5055731;28;20401;-64
2021/03/15 06:24:42;;;;;;;6.23;4.23;;;5.00;99.90;;;;;;5055460;28;20807;-64
2021/03/15 06:27:09;;;;;;;3.87;3.20;;;5.10;99.90;;;;;;5063546;28;20404;-63
2021/03/15 06:29:35;;;;;;;4.57;4.07;;;5.10;99.90;;;;;;5094918;28;20774;-63
2021/03/15 06:32:01;;;;;;;4.00;3.63;;;5.00;99.90;;;;;;5094682;28;20399;-62
2021/03/15 06:34:29;;;;;;;5.40;3.87;;;5.00;99.90;;;;;;5095388;28;20803;-63
2021/03/15 06:36:56;;;;;;;4.60;3.20;;;4.90;99.90;;;;;;5086661;28;20424;-63
2021/03/15 06:39:22;;;;;;;4.27;3.60;;;5.10;99.90;;;;;;5074890;28;20451;-64
2021/03/15 06:41:54;;;;;;;4.33;3.57;;;5.00;99.90;;;;;;5075061;28;20472;-64
2021/03/15 06:44:19;;;;;;;3.70;3.10;;;5.00;99.90;;;;;;5074693;28;20408;-64
2021/03/15 06:46:46;;;;;;;4.47;3.50;;;4.90;99.90;;;;;;5055865;28;21027;-64
2021/03/15 06:49:11;;;;;;;5.93;3.80;;;5.00;99.90;;;;;;5074887;28;20178;-63
2021/03/15 06:51:37;;;;;;;3.20;2.90;;;5.00;99.90;;;;;;5064179;28;20916;-63
2021/03/15 06:54:03;;;;;;;4.37;3.83;;;5.00;99.90;;;;;;5054735;28;20551;-63
2021/03/15 06:56:28;;;;;;;3.20;2.90;;;5.10;99.90;;;;;;5054443;28;20174;-63
2021/03/15 06:58:56;;;;;;;3.70;2.57;;;5.10;99.90;;;;;;5093254;28;20193;-63
2021/03/15 07:01:25;;;;;;;2.80;2.33;;;5.40;99.90;;;;;;5096151;28;20189;-63
2021/03/15 07:04:12;;;;;;;2.40;2.23;;;5.50;99.90;;;;;;5075178;28;20436;-63
2021/03/15 07:06:42;;;;;;;3.73;2.37;;;5.80;99.90;;;;;;5069879;28;20937;-64
2021/03/15 07:09:13;;;;;;;6.03;2.57;;;6.00;99.90;;;;;;5055100;28;20429;-64
2021/03/15 07:11:39;;;;;;;2.70;2.50;;;6.00;99.90;;;;;;5054183;28;20937;-64
2021/03/15 07:14:05;;;;;;;2.53;2.33;;;6.20;99.90;;;;;;5053753;28;20544;-64
2021/03/15 07:16:32;;;;;;;2.87;2.43;;;6.10;99.90;;;;;;5054179;28;20447;-62
2021/03/15 07:19:01;;;;;;;2.63;2.30;;;6.30;99.90;;;;;;5054163;28;20457;-64
2021/03/15 07:21:41;;;;;;;1.80;1.70;;;6.30;99.90;;;;;;5054023;28;20405;-64
2021/03/15 07:24:11;;;;;;;2.50;2.10;;;6.40;99.90;;;;;;5053081;28;20428;-64
2021/03/15 07:26:44;;;;;;;3.00;2.13;;;6.40;99.90;;;;;;5053529;28;20459;-65
2021/03/15 07:29:18;;;;;;;2.00;1.80;;;6.30;99.90;;;;;;5053813;28;20916;-65
2021/03/15 07:31:48;;;;;;;2.50;2.10;;;6.20;99.90;;;;;;5053804;28;20397;-65
2021/03/15 07:34:18;;;;;;;2.30;1.80;;;6.20;99.90;;;;;;5053816;28;20505;-65
2021/03/15 07:36:57;;;;;;;2.23;1.87;;;6.20;99.90;;;;;;5060298;28;20410;-65
2021/03/15 07:39:28;;;;;;;2.27;1.50;;;5.80;99.90;;;;;;5073783;28;20799;-65
2021/03/15 07:41:56;;;;;;;1.83;1.70;;;5.60;99.90;;;;;;5075914;28;20388;-64
2021/03/15 07:44:29;;;;;;;5.37;2.30;;;5.30;99.90;;;;;;5073302;28;20416;-64
2021/03/15 07:47:03;;;;;;;2.90;2.30;;;5.10;99.90;;;;;;5073719;28;20391;-64
2021/03/15 07:49:38;;;;;;;1.87;1.47;;;5.00;99.90;;;;;;5073541;28;20489;-64
2021/03/15 07:52:06;;;;;;;3.40;1.53;;;5.00;99.90;;;;;;5059516;28;20400;-64
2021/03/15 07:54:43;;;;;;;1.80;1.23;;;5.20;99.90;;;;;;5053440;28;20429;-66
2021/03/15 07:57:23;;;;;;;2.50;1.20;;;5.20;99.90;;;;;;5059195;28;20423;-64
2021/03/15 07:59:54;;;;;;;1.57;1.30;;;5.30;99.90;;;;;;5073020;28;20471;-64
2021/03/15 08:02:25;;;;;;;1.40;1.20;;;5.30;99.90;;;;;;5072910;28;20456;-64
2021/03/15 08:04:52;;;;;;;1.40;1.30;;;5.40;99.90;;;;;;5073203;28;20461;-64
2021/03/15 08:07:20;;;;;;;2.00;1.90;;;5.50;99.90;;;;;;5072224;28;20408;-63
2021/03/15 08:09:52;;;;;;;2.20;1.80;;;5.40;99.90;;;;;;5073478;28;20749;-64
2021/03/15 08:12:18;;;;;;;1.50;1.40;;;5.50;99.90;;;;;;5073063;28;20755;-64
2021/03/15 08:14:47;;;;;;;2.20;1.70;;;5.60;99.90;;;;;;5084156;22;20608;-63
2021/03/15 08:17:23;;;;;;;2.40;1.37;;;5.70;99.90;;;;;;5053220;28;20428;-64
2021/03/15 08:19:49;;;;;;;1.30;1.20;;;5.80;99.90;;;;;;5053324;28;20510;-64
2021/03/15 08:22:23;;;;;;;2.23;1.70;;;5.90;99.90;;;;;;5034074;28;20413;-64
2021/03/15 08:24:52;;;;;;;1.63;1.50;;;6.00;99.90;;;;;;5052093;28;20439;-63
2021/03/15 08:27:19;;;;;;;1.93;1.30;;;6.10;99.90;;;;;;5052945;28;20935;-64
2021/03/15 08:29:47;;;;;;;1.60;1.50;;;6.00;99.90;;;;;;5035408;28;20420;-64
2021/03/15 08:32:14;;;;;;;1.50;1.40;;;6.20;99.90;;;;;;5053424;28;20411;-64
2021/03/15 08:34:40;;;;;;;1.80;1.20;;;6.30;99.90;;;;;;5014624;28;20479;-64
2021/03/15 08:37:06;;;;;;;1.90;1.63;;;6.30;99.90;;;;;;5033153;28;20421;-64
2021/03/15 08:39:35;;;;;;;1.73;1.37;;;6.30;99.90;;;;;;5033469;28;20445;-65
2021/03/15 08:42:20;;;;;;;1.43;1.17;;;6.50;99.90;;;;;;5033445;28;20224;-64
2021/03/15 08:44:48;;;;;;;1.10;1.00;;;6.70;99.90;;;;;;5033110;28;20422;-64
2021/03/15 08:47:46;;;;;;;1.20;1.10;;;6.50;99.90;;;;;;5033532;28;20421;-67
2021/03/15 08:50:33;;;;;;;1.40;1.30;;;6.20;99.90;;;;;;5033187;28;20390;-64
2021/03/15 08:52:59;;;;;;;1.40;1.30;;;6.10;99.90;;;;;;5033526;28;20394;-64
2021/03/15 08:55:47;;;;;;;1.47;1.37;;;6.10;99.90;;;;;;5035979;28;20422;-65
2021/03/15 08:58:35;;;;;;;1.17;1.07;;;6.30;99.90;;;;;;5019481;28;20723;-65
2021/03/15 09:01:01;;;;;;;1.57;1.47;;;6.10;99.90;;;;;;5037278;28;20976;-65
2021/03/15 09:03:48;;;;;;;4.13;1.63;;;6.10;99.90;;;;;;5046244;28;20766;-65
2021/03/15 09:06:14;;;;;;;1.80;1.47;;;6.20;99.90;;;;;;5056836;28;20392;-65
2021/03/15 09:09:03;;;;;;;2.03;1.47;;;6.20;99.90;;;;;;5057746;28;20409;-65
2021/03/15 09:11:35;;;;;;;1.80;1.40;;;6.20;99.90;;;;;;5057408;28;20448;-65
2021/03/15 09:16:43;;;;;;;1.47;1.10;;;6.20;99.90;;;;;;5057637;28;20385;-66
2021/03/15 09:19:31;;;;;;;2.50;1.30;;;6.30;99.90;;;;;;5057124;28;20856;-66
2021/03/15 09:22:00;;;;;;;2.27;1.27;;;6.30;99.90;;;;;;5057096;28;20421;-64
2021/03/15 09:24:44;;;;;;;1.00;0.90;;;6.40;99.90;;;;;;5056691;28;20413;-64
2021/03/15 09:27:28;;;;;;;1.90;1.20;;;6.50;99.90;;;;;;5056708;28;20392;-65
2021/03/15 09:29:59;;;;;;;1.63;1.10;;;6.40;99.90;;;;;;5056802;28;20748;-64
2021/03/15 09:32:41;;;;;;;1.33;1.03;;;6.40;99.90;;;;;;5057717;28;20400;-65
2021/03/15 09:35:35;;;;;;;1.33;1.23;;;6.60;99.90;;;;;;5036632;28;20801;-65
2021/03/15 09:38:09;;;;;;;1.33;1.10;;;6.60;99.90;;;;;;5037784;28;20831;-64
2021/03/15 09:40:36;;;;;;;1.60;1.40;;;6.70;99.90;;;;;;5047598;28;20404;-65
2021/03/15 09:43:03;;;;;;;1.30;1.20;;;6.80;99.90;;;;;;5056228;28;20404;-65
2021/03/15 09:45:34;;;;;;;1.53;1.23;;;6.90;99.90;;;;;;5055903;28;20933;-64
2021/03/15 09:48:01;;;;;;;3.63;1.10;;;7.00;99.90;;;;;;5055485;28;20384;-65
2021/03/15 09:50:33;;;;;;;1.47;1.37;;;6.90;99.90;;;;;;5056287;28;20417;-65
2021/03/15 09:53:13;;;;;;;1.57;1.30;;;6.80;99.90;;;;;;5056176;28;20711;-65
2021/03/15 09:55:38;;;;;;;1.37;1.13;;;6.90;99.90;;;;;;5055864;28;20413;-64
2021/03/15 09:58:09;;;;;;;1.93;1.33;;;6.90;99.90;;;;;;5055544;28;20398;-65
2021/03/15 10:00:35;;;;;;;1.93;1.80;;;7.00;99.90;;;;;;5055632;28;20823;-63
2021/03/15 10:03:01;;;;;;;2.37;1.70;;;7.10;99.90;;;;;;5055545;28;20417;-64
2021/03/15 10:05:27;;;;;;;1.87;1.50;;;7.10;99.90;;;;;;5055651;28;20441;-65
2021/03/15 10:07:53;;;;;;;2.60;1.80;;;7.10;99.90;;;;;;5056220;28;20833;-65
2021/03/15 10:10:21;;;;;;;2.30;1.60;;;7.20;99.90;;;;;;5055704;28;20480;-65
2021/03/15 10:12:48;;;;;;;2.00;1.80;;;7.60;99.90;;;;;;5055454;28;20394;-65
2021/03/15 10:15:17;;;;;;;2.00;1.90;;;7.50;99.90;;;;;;5055341;28;20447;-65
2021/03/15 10:17:43;;;;;;;2.70;1.97;;;7.50;99.90;;;;;;5055331;28;20420;-65
2021/03/15 10:20:20;;;;;;;2.17;2.07;;;7.50;99.90;;;;;;5055415;28;20448;-65
2021/03/15 10:22:46;;;;;;;2.60;2.40;;;7.40;99.90;;;;;;5056053;28;20388;-66
2021/03/15 10:25:14;;;;;;;1.93;1.83;;;7.50;99.90;;;;;;5055433;28;20796;-66
2021/03/15 10:27:40;;;;;;;2.17;1.93;;;7.50;99.90;;;;;;5055343;28;20159;-63
2021/03/15 10:30:11;;;;;;;3.60;1.80;;;7.40;99.90;;;;;;5055323;28;20450;-65
2021/03/15 10:32:41;;;;;;;1.87;1.77;;;7.50;99.90;;;;;;5037013;28;20465;-64
2021/03/15 10:35:08;;;;;;;2.30;2.10;;;7.60;99.90;;;;;;5055281;28;20772;-63
2021/03/15 10:37:40;;;;;;;3.07;2.33;;;7.50;99.90;;;;;;5055104;28;20410;-63
2021/03/15 10:40:09;;;;;;;2.57;1.97;;;7.50;99.90;;;;;;5055198;28;20524;-64
2021/03/15 10:42:37;;;;;;;2.77;2.33;;;7.40;99.90;;;;;;5054932;28;20406;-63
2021/03/15 10:45:08;;;;;;;1.80;1.70;;;7.40;99.90;;;;;;5054945;28;20974;-64
2021/03/15 10:47:36;;;;;;;2.03;1.93;;;7.30;99.90;;;;;;5054894;28;20388;-64
2021/03/15 10:50:22;;;;;;;2.47;2.27;;;7.40;99.90;;;;;;5054304;28;20413;-64
2021/03/15 10:52:48;;;;;;;1.80;1.70;;;7.50;99.90;;;;;;5054763;28;20394;-64
2021/03/15 10:55:15;;;;;;;2.77;2.03;;;7.60;99.90;;;;;;5054518;28;20429;-64
2021/03/15 10:58:03;;;;;;;2.40;2.20;;;7.80;99.90;;;;;;5054562;28;20172;-65
2021/03/15 11:00:32;;;;;;;1.60;1.43;;;8.10;99.90;;;;;;5034556;28;20452;-65
2021/03/15 11:02:58;;;;;;;2.57;1.80;;;8.60;99.90;;;;;;5034339;28;20414;-66
2021/03/15 11:05:24;;;;;;;2.30;1.53;;;9.00;99.90;;;;;;5034581;28;20426;-66
2021/03/15 11:07:51;;;;;;;2.00;1.90;;;9.00;99.90;;;;;;5034578;28;20172;-64
2021/03/15 11:10:21;;;;;;;2.27;1.90;;;8.90;99.90;;;;;;5035131;28;20899;-64
2021/03/15 11:12:49;;;;;;;1.83;1.73;;;9.00;99.90;;;;;;5034346;28;20401;-65
2021/03/15 11:15:32;;;;;;;2.53;1.70;;;8.90;99.90;;;;;;5034217;28;20827;-64
2021/03/15 11:18:15;;;;;;;2.40;1.80;;;8.70;99.90;;;;;;5033684;28;20392;-64
2021/03/15 11:20:49;;;;;;;2.07;1.97;;;8.70;99.90;;;;;;5034628;28;20495;-65
2021/03/15 11:23:28;;;;;;;2.07;1.30;;;8.80;99.90;;;;;;5034458;28;20388;-65
2021/03/15 11:26:09;;;;;;;1.60;1.50;;;8.70;99.90;;;;;;5034393;28;20420;-64
2021/03/15 11:28:39;;;;;;;4.17;1.60;;;8.50;99.90;;;;;;5034178;28;20432;-65
2021/03/15 11:31:11;;;;;;;2.10;1.87;;;8.50;99.90;;;;;;5034372;28;20453;-65
2021/03/15 11:33:37;;;;;;;1.70;1.60;;;8.60;99.90;;;;;;5033549;28;20397;-65
2021/03/15 11:36:13;;;;;;;1.90;1.70;;;8.50;99.90;;;;;;5033917;28;20434;-65
2021/03/15 11:38:38;;;;;;;2.77;1.87;;;8.50;99.90;;;;;;5034218;28;20438;-64
2021/03/15 11:41:19;;;;;;;1.73;1.63;;;8.70;99.90;;;;;;5043049;28;20487;-64
2021/03/15 11:43:45;;;;;;;1.83;1.70;;;8.40;99.90;;;;;;5053798;28;20159;-64
2021/03/15 11:46:10;;;;;;;1.80;1.70;;;8.30;99.90;;;;;;5051878;28;20423;-65
2021/03/15 11:48:36;;;;;;;2.23;2.03;;;8.40;99.90;;;;;;5042248;28;20181;-65
2021/03/15 11:51:04;;;;;;;4.83;2.33;;;8.30;99.90;;;;;;5033645;28;20542;-65
2021/03/15 11:53:29;;;;;;;2.20;2.00;;;8.30;99.90;;;;;;5033965;28;20172;-66
2021/03/15 11:55:55;;;;;;;2.50;2.30;;;8.40;99.90;;;;;;5033601;28;20434;-66
2021/03/15 11:58:20;;;;;;;2.57;2.37;;;8.30;99.90;;;;;;5032635;28;20668;-65
2021/03/15 12:00:46;;;;;;;2.20;2.00;;;8.20;99.90;;;;;;5033633;28;20286;-65
2021/03/15 12:03:12;;;;;;;2.40;2.20;;;8.10;99.90;;;;;;5034401;28;20202;-65
2021/03/15 12:05:37;;;;;;;3.30;2.50;;;8.00;99.90;;;;;;5015879;28;20195;-65
2021/03/15 12:08:03;;;;;;;2.73;2.27;;;8.00;99.90;;;;;;5033796;28;20638;-66
2021/03/15 12:10:29;;;;;;;2.53;2.20;;;8.00;99.90;;;;;;5033449;28;20176;-66
2021/03/15 12:12:54;;;;;;;2.80;2.57;;;8.10;99.90;;;;;;5032701;28;20430;-65
2021/03/15 12:15:20;;;;;;;2.40;2.20;;;8.20;99.90;;;;;;5033317;28;20200;-65
2021/03/15 12:17:47;;;;;;;2.60;2.40;;;8.40;99.90;;;;;;5035259;28;20212;-66
2021/03/15 12:20:12;;;;;;;2.70;2.50;;;8.30;99.90;;;;;;5052204;28;20556;-66
2021/03/15 12:22:38;;;;;;;2.10;2.00;;;8.50;99.90;;;;;;5042411;28;20434;-66
2021/03/15 12:25:05;;;;;;;2.43;2.23;;;8.30;99.90;;;;;;5033033;28;20278;-66
2021/03/15 12:27:30;;;;;;;2.60;2.40;;;8.20;99.90;;;;;;5033036;28;20422;-65
2021/03/15 12:29:56;;;;;;;3.07;2.57;;;8.10;99.90;;;;;;5032160;28;20947;-65
2021/03/15 12:32:22;;;;;;;2.80;2.60;;;8.10;99.90;;;;;;5033219;28;20251;-66
2021/03/15 12:34:48;;;;;;;2.90;2.70;;;8.10;99.90;;;;;;5015185;28;20220;-66
2021/03/15 12:37:13;;;;;;;3.13;2.93;;;8.30;99.90;;;;;;5033137;28;20415;-64
2021/03/15 12:39:39;;;;;;;2.90;2.70;;;8.40;99.90;;;;;;5033234;28;20672;-65
2021/03/15 12:42:05;;;;;;;2.10;2.00;;;8.70;99.90;;;;;;5032980;28;20532;-65
2021/03/15 12:44:31;;;;;;;2.80;2.60;;;8.90;99.90;;;;;;5032924;28;20549;-65
2021/03/15 12:46:56;;;;;;;2.60;2.40;;;9.20;99.90;;;;;;5032916;28;20957;-64
2021/03/15 12:49:25;;;;;;;6.53;2.17;;;9.70;99.90;;;;;;5033387;28;20173;-65
2021/03/15 12:51:51;;;;;;;2.50;2.30;;;10.10;99.90;;;;;;5039911;28;20735;-66
2021/03/15 12:54:16;;;;;;;2.40;2.27;;;10.70;99.90;;;;;;5036934;28;20529;-66
2021/03/15 12:56:42;;;;;;;2.57;2.37;;;11.90;99.90;;;;;;5032701;28;20176;-66
2021/03/15 12:59:08;;;;;;;2.17;2.07;;;12.50;99.90;;;;;;5043848;28;20257;-66
2021/03/15 13:01:33;;;;;;;2.20;2.00;;;13.20;99.90;;;;;;5032631;28;20174;-66
2021/03/15 13:03:59;;;;;;;2.60;2.40;;;13.00;99.90;;;;;;5032813;28;20165;-66
2021/03/15 13:06:25;;;;;;;2.70;2.50;;;12.40;99.90;;;;;;5032997;28;20245;-65
2021/03/15 13:08:50;;;;;;;3.03;2.83;;;12.30;99.90;;;;;;5032982;28;20168;-65
2021/03/15 13:11:17;;;;;;;2.70;2.50;;;12.20;99.90;;;;;;5033116;28;20686;-66
2021/03/15 13:13:44;;;;;;;2.30;2.10;;;12.00;99.90;;;;;;5032839;28;20171;-66
2021/03/15 13:16:10;;;;;;;2.17;2.07;;;11.70;99.90;;;;;;5039356;28;20514;-66